Weather at Goczałkowice

Public forecast

Using degrees Celsius for public forecast. Weather courtesy of forecast.io.

Closest aviation weather report (METAR) to Goczałkowice

Report is more than 2 hours old.

Closest report is Katowice Wojciech Korfanty International Airport, 31.9 nm (59.1 km) N.

2024/06/24 21:00 (retrieved 6 hours ago)

EPKT 242100Z 03003KT CAVOK 13/10 Q1020

Closest aviation forecast (TAF) to Goczałkowice

Forecast is more than 6 hours old.

Closest forecast is Katowice Wojciech Korfanty International Airport, 31.9 nm (59.1 km) N.

2024/06/24 18:33 (retrieved 8 hours ago)

TAF EPKT 241730Z 2418/2518 01010KT 9999 SCT048 BECMG 2418/2421 VRB02KT PROB40 TEMPO 2421/2505 3500 BR BECMG 2504/2507 07010KT